Time;durP1;ratioP1;P1;durP2;ratioP2;P2;SDS_P1;SDS_P2;PMS_P1;PMS_P2;Temp;Humidity;BMP_temperature;BMP_pressure;BME280_temperature;BME280_humidity;BME280_pressure;Samples;Min_cycle;Max_cycle;Signal;HPM_P1;HPM_P2
2021/06/04 00:01:52;;;;;;;5.88;4.80;;;;;;;16.89;54.29;101561.22;5029959;28;20072;-80
2021/06/04 00:04:19;;;;;;;5.35;4.57;;;;;;;16.82;55.85;101559.69;5048534;28;20071;-81
2021/06/04 00:06:46;;;;;;;4.90;4.40;;;;;;;16.92;55.86;101556.72;5028312;28;20045;-80
2021/06/04 00:09:14;;;;;;;7.10;4.82;;;;;;;17.11;52.34;101561.41;5110005;23;20569;-78
2021/06/04 00:11:45;;;;;;;4.88;4.38;;;;;;;17.05;55.28;101556.25;5066709;28;20051;-78
2021/06/04 00:14:22;;;;;;;6.97;4.95;;;;;;;16.97;55.21;101563.66;5067106;28;20538;-77
2021/06/04 00:16:56;;;;;;;5.15;4.57;;;;;;;17.02;53.15;101576.84;5075947;28;20040;-79
2021/06/04 00:19:26;;;;;;;6.53;4.60;;;;;;;16.86;53.91;101573.81;5065339;28;20079;-77
2021/06/04 00:21:56;;;;;;;5.57;5.03;;;;;;;17.02;53.60;101582.19;5081914;28;20036;-79
2021/06/04 00:24:23;;;;;;;5.30;4.80;;;;;;;17.02;52.12;101582.19;5085696;28;20047;-79
2021/06/04 00:26:51;;;;;;;7.35;4.63;;;;;;;17.00;54.53;101589.38;5066221;28;20508;-78
2021/06/04 00:29:18;;;;;;;6.35;4.35;;;;;;;16.98;52.85;101586.75;5087347;28;20044;-79
2021/06/04 00:31:47;;;;;;;5.40;4.35;;;;;;;16.92;54.32;101578.97;5068734;28;20044;-79
2021/06/04 00:34:14;;;;;;;7.15;4.68;;;;;;;16.83;57.33;101569.44;5048232;28;20047;-78
2021/06/04 00:36:43;;;;;;;8.40;4.28;;;;;;;16.87;53.84;101578.22;5061850;28;20037;-79
2021/06/04 00:39:11;;;;;;;6.93;4.55;;;;;;;16.81;55.49;101578.41;5077206;28;20040;-79
2021/06/04 00:41:51;;;;;;;5.05;4.32;;;;;;;16.64;57.04;101580.69;5066887;28;20413;-79
2021/06/04 00:44:18;;;;;;;5.20;4.45;;;;;;;16.61;56.52;101579.88;5077586;28;20454;-79
2021/06/04 00:46:44;;;;;;;5.85;5.18;;;;;;;16.63;58.57;101577.16;5069101;28;20914;-78
2021/06/04 00:49:12;;;;;;;5.20;4.65;;;;;;;16.55;58.07;101577.38;5072766;28;20667;-80
2021/06/04 00:51:43;;;;;;;6.20;4.80;;;;;;;16.63;55.45;101576.28;5056250;28;20500;-79
2021/06/04 00:54:11;;;;;;;6.28;4.93;;;;;;;16.59;55.18;101578.19;5062577;28;20070;-79
2021/06/04 00:56:38;;;;;;;6.45;4.60;;;;;;;16.46;57.38;101579.47;5071326;28;20067;-79
2021/06/04 00:59:08;;;;;;;6.28;4.70;;;;;;;16.52;56.52;101577.50;5066147;28;20066;-79
2021/06/04 01:01:35;;;;;;;4.90;4.40;;;;;;;16.44;57.50;101575.97;5081442;28;20047;-80
2021/06/04 01:04:15;;;;;;;5.28;4.57;;;;;;;16.37;58.12;101572.63;5061005;28;20039;-79
2021/06/04 01:07:01;;;;;;;5.60;4.97;;;;;;;16.43;58.34;101574.22;5059473;28;20081;-79
2021/06/04 01:09:42;;;;;;;8.98;6.07;;;;;;;16.31;56.85;101573.69;5086043;28;20484;-79
2021/06/04 01:12:09;;;;;;;5.10;4.60;;;;;;;16.39;57.43;101560.09;5084914;28;20078;-79
2021/06/04 01:14:50;;;;;;;5.18;4.20;;;;;;;16.43;57.65;101563.56;5065437;28;20075;-79
2021/06/04 01:17:54;;;;;;;7.68;4.90;;;;;;;16.38;57.66;101565.47;5061846;28;20529;-79
2021/06/04 01:20:31;;;;;;;5.75;4.47;;;;;;;16.32;59.11;101564.78;5051275;28;20094;-79
2021/06/04 01:23:16;;;;;;;5.47;4.97;;;;;;;16.18;59.57;101577.63;5058237;28;20707;-79
2021/06/04 01:25:50;;;;;;;6.57;4.70;;;;;;;16.12;57.82;101566.25;5079125;28;20477;-79
2021/06/04 01:28:26;;;;;;;5.10;4.60;;;;;;;16.14;58.73;101575.06;5054224;28;20093;-78
2021/06/04 01:31:18;;;;;;;5.20;4.70;;;;;;;16.12;59.11;101572.47;5061616;28;20032;-78
2021/06/04 01:34:10;;;;;;;5.45;4.88;;;;;;;16.28;59.46;101573.75;5082566;28;20048;-77
2021/06/04 01:36:40;;;;;;;6.20;5.07;;;;;;;16.07;59.59;101566.41;5081458;28;20044;-77
2021/06/04 01:39:12;;;;;;;5.43;4.88;;;;;;;16.21;56.20;101569.53;5053807;28;20044;-79
2021/06/04 01:41:41;;;;;;;6.95;5.20;;;;;;;16.23;56.54;101559.72;5072867;28;20425;-78
2021/06/04 01:44:13;;;;;;;6.40;4.65;;;;;;;16.09;59.87;101572.56;5084881;28;20241;-78
2021/06/04 01:46:43;;;;;;;6.88;4.72;;;;;;;16.16;58.37;101567.94;5070200;28;20039;-78
2021/06/04 01:49:15;;;;;;;6.47;4.75;;;;;;;16.23;57.21;101564.16;5054825;28;20132;-79
2021/06/04 01:51:44;;;;;;;5.95;4.85;;;;;;;16.16;58.96;101562.59;5050561;28;20078;-78
2021/06/04 01:54:15;;;;;;;4.75;4.35;;;;;;;16.12;60.92;101561.78;5069633;28;20508;-79
2021/06/04 01:56:46;;;;;;;6.22;5.00;;;;;;;16.12;60.60;101560.94;5074356;28;20473;-79
2021/06/04 01:59:24;;;;;;;6.15;4.85;;;;;;;16.02;59.63;101563.84;5067181;28;20562;-79
2021/06/04 02:01:52;;;;;;;6.10;4.82;;;;;;;16.18;57.59;101558.09;5083148;28;20110;-78
2021/06/04 02:04:24;;;;;;;5.43;4.93;;;;;;;16.14;58.46;101562.63;5054199;28;20136;-79
2021/06/04 02:06:51;;;;;;;6.82;5.20;;;;;;;16.08;58.56;101552.16;5048761;28;20047;-80
2021/06/04 02:09:21;;;;;;;5.57;4.97;;;;;;;16.05;61.11;101560.22;5050231;28;20150;-78
2021/06/04 02:11:49;;;;;;;5.90;4.57;;;;;;;16.05;60.52;101560.22;5068483;28;20047;-79
2021/06/04 02:14:21;;;;;;;5.53;4.82;;;;;;;15.99;61.10;101549.75;5085458;28;20111;-80
2021/06/04 02:17:02;;;;;;;5.65;5.03;;;;;;;15.93;59.32;101553.47;5088371;28;21573;-80
2021/06/04 02:19:58;;;;;;;5.68;5.07;;;;;;;16.08;60.13;101551.28;5083268;28;20040;-79
2021/06/04 02:22:25;;;;;;;5.85;4.85;;;;;;;16.00;60.30;101552.38;5071782;28;20039;-80
2021/06/04 02:25:10;;;;;;;6.45;5.30;;;;;;;16.00;59.80;101551.50;5085193;28;20036;-80
2021/06/04 02:27:41;;;;;;;6.20;4.60;;;;;;;16.10;56.70;101547.66;5061386;28;20059;-79
2021/06/04 02:30:21;;;;;;;5.20;4.70;;;;;;;16.09;58.24;101547.69;5059145;28;20052;-79
2021/06/04 02:32:53;;;;;;;5.70;4.55;;;;;;;16.03;60.26;101544.28;5061406;28;20058;-78
2021/06/04 02:35:26;;;;;;;5.07;4.57;;;;;;;15.98;59.93;101548.03;5071544;28;20540;-77
2021/06/04 02:38:09;;;;;;;5.22;4.72;;;;;;;16.05;60.95;101546.91;5053225;28;20071;-77
2021/06/04 02:40:39;;;;;;;5.15;4.65;;;;;;;15.89;60.33;101546.50;5063167;28;20097;-77
2021/06/04 02:43:12;;;;;;;5.15;4.40;;;;;;;15.92;61.27;101545.53;5064006;28;20051;-76
2021/06/04 02:45:42;;;;;;;7.40;5.20;;;;;;;15.85;60.61;101551.94;5055028;28;20040;-76
2021/06/04 02:48:14;;;;;;;5.10;4.65;;;;;;;15.85;61.17;101557.25;5077622;28;20048;-77
2021/06/04 02:50:51;;;;;;;4.82;4.40;;;;;;;15.89;59.12;101553.56;5069297;28;20397;-77
2021/06/04 02:53:29;;;;;;;6.15;4.95;;;;;;;15.85;60.94;101555.47;5056803;28;20044;-77
2021/06/04 02:56:13;;;;;;;5.80;5.20;;;;;;;15.90;61.35;101548.22;5087500;28;20078;-78
2021/06/04 02:58:42;;;;;;;6.13;5.53;;;;;;;15.83;63.02;101548.44;5069480;28;20040;-77
2021/06/04 03:01:11;;;;;;;5.57;5.03;;;;;;;15.83;59.54;101551.09;5057218;28;20079;-78
2021/06/04 03:03:38;;;;;;;5.30;4.80;;;;;;;15.78;61.47;101548.56;5064446;28;20048;-78
2021/06/04 03:06:05;;;;;;;5.43;4.93;;;;;;;15.73;63.69;101538.03;5046009;28;20040;-77
2021/06/04 03:08:35;;;;;;;6.88;5.60;;;;;;;15.82;62.10;101536.91;5083235;28;20417;-77
2021/06/04 03:11:05;;;;;;;6.15;5.00;;;;;;;15.83;63.46;101532.47;5065573;28;20733;-77
2021/06/04 03:13:32;;;;;;;5.75;4.80;;;;;;;15.74;61.89;101541.59;5069748;28;20070;-78
2021/06/04 03:16:13;;;;;;;5.45;4.80;;;;;;;15.72;62.45;101538.97;5080616;28;20077;-77
2021/06/04 03:18:48;;;;;;;6.45;5.38;;;;;;;15.87;60.88;101542.97;5059736;28;20568;-77
2021/06/04 03:21:22;;;;;;;6.63;5.30;;;;;;;15.87;59.83;101539.44;5054774;28;20446;-77
2021/06/04 03:23:49;;;;;;;10.35;5.80;;;;;;;15.89;63.23;101540.25;5060348;28;20094;-76
2021/06/04 03:26:21;;;;;;;5.80;5.25;;;;;;;15.87;63.20;101542.09;5052045;28;20073;-77
2021/06/04 03:28:48;;;;;;;7.80;5.35;;;;;;;16.03;57.83;101538.06;5079811;28;20082;-77
2021/06/04 03:31:17;;;;;;;5.10;4.60;;;;;;;15.99;58.50;101542.63;5078501;28;21931;-77
2021/06/04 03:33:43;;;;;;;6.28;5.00;;;;;;;15.94;61.41;101538.34;5055420;28;20040;-77
2021/06/04 03:36:13;;;;;;;6.82;5.35;;;;;;;15.93;61.65;101534.81;5077271;28;20554;-77
2021/06/04 03:38:42;;;;;;;7.80;4.88;;;;;;;15.99;60.00;101534.63;5086033;28;20631;-77
2021/06/04 03:41:11;;;;;;;12.20;6.05;;;;;;;16.03;60.88;101530.94;5063626;28;20154;-77
2021/06/04 03:43:38;;;;;;;9.60;5.60;;;;;;;15.92;63.30;101532.19;5060483;28;20102;-77
2021/06/04 03:46:05;;;;;;;7.38;4.93;;;;;;;15.94;63.54;101527.69;5060165;28;20086;-77
2021/06/04 03:48:34;;;;;;;7.32;5.55;;;;;;;15.90;62.56;101529.56;5073542;28;20046;-77
2021/06/04 03:51:11;;;;;;;6.18;5.00;;;;;;;15.99;60.85;101534.63;5071421;28;20452;-77
2021/06/04 03:53:38;;;;;;;5.93;4.90;;;;;;;16.16;59.21;101538.59;5082023;28;20048;-77
2021/06/04 03:56:06;;;;;;;6.82;5.30;;;;;;;16.15;57.98;101531.53;5068660;28;20043;-77
2021/06/04 03:58:33;;;;;;;5.18;4.55;;;;;;;16.00;60.77;101547.03;5083974;28;20044;-78
2021/06/04 04:01:08;;;;;;;8.05;5.15;;;;;;;16.17;58.33;101533.22;5054772;28;20055;-78
2021/06/04 04:03:36;;;;;;;6.63;5.70;;;;;;;16.09;61.96;101537.03;5072288;28;20097;-77
2021/06/04 04:06:02;;;;;;;5.82;5.00;;;;;;;16.09;62.67;101531.69;5077985;28;20061;-77
2021/06/04 04:08:30;;;;;;;6.97;5.25;;;;;;;16.12;59.73;101532.47;5039637;28;20048;-77
2021/06/04 04:11:02;;;;;;;6.97;4.88;;;;;;;16.13;61.04;101518.22;5069046;28;20047;-78
2021/06/04 04:13:29;;;;;;;6.28;5.40;;;;;;;16.02;61.44;101536.34;5062236;28;20276;-77
2021/06/04 04:15:57;;;;;;;5.88;5.28;;;;;;;16.08;61.64;101524.63;5077335;28;20049;-77
2021/06/04 04:18:24;;;;;;;5.30;4.80;;;;;;;16.00;62.24;101531.06;5082715;28;20036;-77
2021/06/04 04:20:54;;;;;;;7.68;5.20;;;;;;;16.07;60.90;101531.75;5086715;28;20121;-78
2021/06/04 04:23:29;;;;;;;5.40;4.82;;;;;;;15.93;59.43;101539.25;5070686;28;20036;-78
2021/06/04 04:25:56;;;;;;;8.13;5.50;;;;;;;16.02;64.19;101531.88;5084741;28;20037;-77
2021/06/04 04:28:26;;;;;;;5.80;5.20;;;;;;;16.09;62.87;101529.91;5080501;28;20085;-78
2021/06/04 04:30:52;;;;;;;6.07;5.32;;;;;;;16.02;60.68;101529.22;5071759;28;20496;-77
2021/06/04 04:33:19;;;;;;;6.85;5.15;;;;;;;16.22;60.39;101520.59;5087117;28;20051;-78
2021/06/04 04:35:46;;;;;;;6.72;5.10;;;;;;;16.19;60.99;101525.16;5044833;28;20458;-78
2021/06/04 04:38:20;;;;;;;8.50;4.72;;;;;;;16.22;60.68;101527.72;5075423;28;20067;-77
2021/06/04 04:40:49;;;;;;;7.63;5.13;;;;;;;16.17;62.52;101530.56;5087887;28;20076;-77
2021/06/04 04:43:17;;;;;;;6.05;5.00;;;;;;;16.14;62.92;101522.63;5073906;28;20098;-77
2021/06/04 04:45:44;;;;;;;6.03;5.13;;;;;;;16.27;59.93;101516.03;5059126;28;20041;-77
2021/06/04 04:48:10;;;;;;;6.07;4.72;;;;;;;16.22;65.69;101514.41;5062643;28;20036;-77
2021/06/04 04:50:38;;;;;;;7.22;5.15;;;;;;;16.23;62.02;101527.72;5088676;28;20043;-77
2021/06/04 04:53:05;;;;;;;6.95;4.95;;;;;;;16.31;61.50;101520.34;5083611;28;20071;-80
2021/06/04 04:55:36;;;;;;;5.72;5.07;;;;;;;16.30;62.71;101520.38;5039524;28;20075;-80
2021/06/04 04:58:04;;;;;;;5.47;4.88;;;;;;;16.47;59.92;101514.53;5055330;28;20041;-80
2021/06/04 05:00:32;;;;;;;8.00;5.80;;;;;;;16.44;58.46;101526.16;5048838;28;20439;-80
2021/06/04 05:02:59;;;;;;;5.72;4.70;;;;;;;16.46;59.86;101523.44;5087632;28;20036;-80
2021/06/04 05:05:28;;;;;;;5.40;4.85;;;;;;;16.42;61.10;101522.69;5081796;28;20127;-78
2021/06/04 05:07:58;;;;;;;6.50;5.38;;;;;;;16.38;61.34;101517.47;5068411;28;20687;-78
2021/06/04 05:10:25;;;;;;;6.13;5.05;;;;;;;16.39;61.51;101521.88;5064677;28;20419;-76
2021/06/04 05:12:52;;;;;;;5.93;5.10;;;;;;;16.35;62.72;101514.91;5067037;28;20075;-76
2021/06/04 05:15:22;;;;;;;6.15;5.43;;;;;;;16.45;60.41;101519.03;5061052;28;20540;-77
2021/06/04 05:17:49;;;;;;;5.47;4.80;;;;;;;16.48;63.06;101511.84;5073869;28;20417;-77
2021/06/04 05:20:17;;;;;;;7.13;5.85;;;;;;;16.57;59.58;101514.22;5085750;28;20051;-77
2021/06/04 05:22:51;;;;;;;9.13;5.32;;;;;;;16.53;61.15;101509.00;5079100;28;20435;-77
2021/06/04 05:25:21;;;;;;;6.50;5.20;;;;;;;16.69;60.87;101510.31;5069358;28;20497;-78
2021/06/04 05:27:51;;;;;;;6.97;5.10;;;;;;;16.68;59.15;101507.66;5079558;28;20051;-78
2021/06/04 05:30:22;;;;;;;8.25;5.40;;;;;;;16.64;59.40;101512.19;5069853;28;20509;-76
2021/06/04 05:32:49;;;;;;;6.88;5.15;;;;;;;16.59;60.74;101511.50;5074448;28;20467;-78
2021/06/04 05:35:16;;;;;;;8.98;5.95;;;;;;;16.52;59.52;101505.47;5062113;28;20078;-78
2021/06/04 05:37:44;;;;;;;5.95;5.35;;;;;;;16.66;60.42;101513.03;5080511;28;20043;-77
2021/06/04 05:40:16;;;;;;;6.63;5.78;;;;;;;16.58;59.82;101518.63;5086199;28;20048;-79
2021/06/04 05:42:44;;;;;;;6.53;4.85;;;;;;;16.75;60.00;101515.44;5068416;28;20053;-78
2021/06/04 05:45:15;;;;;;;5.20;4.57;;;;;;;16.70;61.52;101509.38;5077362;28;20047;-78
2021/06/04 05:47:42;;;;;;;5.38;4.82;;;;;;;16.75;59.83;101507.44;5063172;28;20028;-77
2021/06/04 05:50:14;;;;;;;6.28;5.57;;;;;;;16.76;60.43;101519.84;5083341;28;20722;-78
2021/06/04 05:52:42;;;;;;;6.32;5.28;;;;;;;16.74;58.36;101513.72;5075801;28;20039;-77
2021/06/04 05:55:11;;;;;;;6.20;5.28;;;;;;;16.77;60.28;101524.28;5083784;28;20048;-77
2021/06/04 05:57:38;;;;;;;6.85;4.88;;;;;;;16.82;59.85;101511.66;5064853;28;20063;-78
2021/06/04 06:00:18;;;;;;;6.70;5.38;;;;;;;16.93;58.33;101521.97;5053065;28;20044;-78
2021/06/04 06:02:45;;;;;;;6.88;5.38;;;;;;;16.98;57.96;101513.78;5087760;28;20040;-79
2021/06/04 06:05:15;;;;;;;5.97;5.30;;;;;;;17.11;57.51;101526.69;5065532;28;20116;-78
2021/06/04 06:07:41;;;;;;;6.30;5.65;;;;;;;17.16;58.60;101529.22;5070940;28;20040;-78
2021/06/04 06:10:08;;;;;;;6.60;5.00;;;;;;;17.11;59.41;101534.69;5096638;28;20109;-77
2021/06/04 06:12:35;;;;;;;5.40;4.90;;;;;;;17.12;59.30;101530.22;5044152;28;20098;-79
2021/06/04 06:15:06;;;;;;;9.70;5.80;;;;;;;17.11;60.70;101534.69;5069331;28;20047;-77
2021/06/04 06:17:34;;;;;;;6.60;5.45;;;;;;;17.07;61.66;101534.88;5069901;28;20098;-79
2021/06/04 06:20:22;;;;;;;6.15;5.55;;;;;;;17.12;59.01;101535.56;5065047;28;20495;-78
2021/06/04 06:22:52;;;;;;;8.60;5.93;;;;;;;16.99;61.01;101536.94;5080571;28;20032;-81
2021/06/04 06:25:26;;;;;;;8.82;5.70;;;;;;;16.99;61.51;101545.81;5043507;28;20131;-78
2021/06/04 06:27:52;;;;;;;5.90;5.28;;;;;;;16.94;61.62;101546.88;5086268;28;20733;-79
2021/06/04 06:30:22;;;;;;;6.13;5.53;;;;;;;17.02;59.54;101550.16;5074830;28;20078;-78
2021/06/04 06:32:49;;;;;;;7.15;5.20;;;;;;;16.94;61.57;101550.41;5067794;28;20044;-77
2021/06/04 06:35:20;;;;;;;6.00;5.40;;;;;;;16.88;61.61;101554.13;5062801;28;20514;-78
2021/06/04 06:37:46;;;;;;;5.40;4.90;;;;;;;16.89;61.18;101549.66;5068354;28;20089;-78
2021/06/04 06:40:13;;;;;;;6.07;5.22;;;;;;;16.94;62.46;101550.41;5057867;28;20194;-77
2021/06/04 06:42:40;;;;;;;7.00;5.07;;;;;;;17.00;66.24;101539.53;5067319;28;20684;-78
2021/06/04 06:45:09;;;;;;;6.40;5.47;;;;;;;17.08;60.24;101553.50;5083506;28;20071;-78
2021/06/04 06:47:39;;;;;;;6.80;5.20;;;;;;;17.12;61.61;101547.13;5050900;28;20817;-77
2021/06/04 06:50:08;;;;;;;7.07;5.53;;;;;;;17.21;58.34;101547.75;5055383;28;20668;-78
2021/06/04 06:52:35;;;;;;;6.45;5.28;;;;;;;17.09;61.49;101541.91;5067357;28;20041;-77
2021/06/04 06:55:02;;;;;;;6.97;5.78;;;;;;;17.19;62.33;101547.81;5064869;28;20610;-78
2021/06/04 06:57:29;;;;;;;8.85;5.00;;;;;;;17.25;61.82;101549.41;5085673;28;20064;-77
2021/06/04 06:59:57;;;;;;;6.78;5.85;;;;;;;17.31;60.70;101546.50;5085707;28;20040;-77
2021/06/04 07:02:23;;;;;;;6.65;5.18;;;;;;;17.38;60.75;101543.56;5069525;28;20040;-78
2021/06/04 07:04:50;;;;;;;7.13;5.40;;;;;;;17.38;60.55;101554.25;5081070;28;20036;-77
2021/06/04 07:07:18;;;;;;;7.25;5.07;;;;;;;17.49;60.19;101550.31;5076013;28;20443;-77
2021/06/04 07:09:46;;;;;;;8.68;5.50;;;;;;;17.51;62.41;101553.84;5044384;28;20044;-78
2021/06/04 07:12:12;;;;;;;7.85;5.45;;;;;;;17.57;61.67;101549.16;5066117;28;20055;-78
2021/06/04 07:14:44;;;;;;;6.47;5.50;;;;;;;17.67;61.74;101545.22;5080115;28;20090;-78
2021/06/04 07:17:11;;;;;;;6.35;5.75;;;;;;;17.70;61.01;101549.63;5081237;28;20097;-79
2021/06/04 07:19:38;;;;;;;7.93;5.43;;;;;;;17.76;60.59;101544.06;5055053;28;20046;-79
2021/06/04 07:22:05;;;;;;;8.43;5.53;;;;;;;17.63;61.45;101546.25;5078919;28;20497;-78
2021/06/04 07:24:32;;;;;;;6.38;5.15;;;;;;;17.68;61.53;101546.09;5081203;28;20140;-78
2021/06/04 07:26:59;;;;;;;7.72;5.30;;;;;;;17.66;60.55;101548.84;5059445;28;20405;-78
2021/06/04 07:29:28;;;;;;;5.45;4.95;;;;;;;17.59;62.41;101541.09;5083797;28;20074;-79
2021/06/04 07:31:55;;;;;;;6.40;5.13;;;;;;;17.48;62.93;101548.59;5048747;28;20070;-78
2021/06/04 07:34:23;;;;;;;8.25;5.68;;;;;;;17.52;61.62;101534.22;5096491;28;20059;-77
2021/06/04 07:36:54;;;;;;;6.53;4.93;;;;;;;17.51;62.76;101536.00;5072607;28;20032;-77
2021/06/04 07:39:25;;;;;;;22.70;6.72;;;;;;;17.45;62.46;101542.44;5074807;28;20071;-78
2021/06/04 07:41:52;;;;;;;12.65;6.30;;;;;;;17.49;63.57;101535.19;5064292;28;20047;-77
2021/06/04 07:44:19;;;;;;;6.30;5.15;;;;;;;17.45;64.58;101538.88;5050012;28;20044;-79
2021/06/04 07:46:47;;;;;;;6.95;5.75;;;;;;;17.50;65.22;101542.28;5080643;28;20508;-79
2021/06/04 07:49:14;;;;;;;8.35;5.15;;;;;;;17.52;65.22;101550.25;5065926;28;20518;-79
2021/06/04 07:51:45;;;;;;;8.73;6.05;;;;;;;17.62;65.35;101546.31;5053529;28;20044;-78
2021/06/04 07:54:12;;;;;;;7.88;5.60;;;;;;;17.80;60.93;101550.16;5064114;28;20404;-78
2021/06/04 07:56:41;;;;;;;6.65;5.05;;;;;;;17.89;59.31;101540.00;5064637;28;20426;-78
2021/06/04 07:59:07;;;;;;;6.32;5.45;;;;;;;17.75;61.73;101549.47;5085501;28;20713;-77
2021/06/04 08:01:34;;;;;;;7.03;5.32;;;;;;;17.89;60.69;101545.34;5069322;28;20036;-76
2021/06/04 08:04:02;;;;;;;6.20;5.13;;;;;;;17.79;60.11;101559.97;5068950;28;20066;-78
2021/06/04 08:06:29;;;;;;;6.20;5.30;;;;;;;17.86;61.93;101556.16;5091980;28;20039;-77
2021/06/04 08:08:56;;;;;;;6.28;5.68;;;;;;;17.84;60.59;101555.34;5066495;28;20436;-77
2021/06/04 08:11:30;;;;;;;7.80;5.70;;;;;;;17.97;62.25;101553.06;5077974;28;20099;-79
2021/06/04 08:13:58;;;;;;;6.47;5.07;;;;;;;18.09;61.05;101554.44;5074545;28;20123;-78
2021/06/04 08:16:27;;;;;;;5.78;5.10;;;;;;;18.21;59.98;101551.28;5072264;28;20044;-78
2021/06/04 08:18:54;;;;;;;7.50;5.72;;;;;;;18.44;59.91;101553.09;5059016;28;20032;-77
2021/06/04 08:21:25;;;;;;;5.13;4.63;;;;;;;18.49;60.64;101551.97;5078018;28;20623;-77
2021/06/04 08:23:51;;;;;;;5.90;5.40;;;;;;;18.57;60.99;101559.69;5049889;28;20155;-77
2021/06/04 08:26:30;;;;;;;6.30;5.07;;;;;;;18.78;60.41;101560.69;5083336;28;20074;-78
2021/06/04 08:28:57;;;;;;;5.15;4.65;;;;;;;18.83;58.08;101559.56;5084298;28;20028;-78
2021/06/04 08:31:24;;;;;;;5.57;5.07;;;;;;;18.90;57.66;101572.69;5066523;28;20044;-77
2021/06/04 08:33:51;;;;;;;7.30;5.15;;;;;;;19.04;56.12;101563.16;5089652;28;20722;-77
2021/06/04 08:36:22;;;;;;;6.93;5.32;;;;;;;18.80;56.18;101567.72;5073812;28;20072;-78
2021/06/04 08:38:49;;;;;;;5.85;5.07;;;;;;;19.05;57.05;101569.41;5089127;28;20032;-77
2021/06/04 08:41:24;;;;;;;6.90;5.53;;;;;;;19.21;54.83;101569.63;5059877;28;20052;-79
2021/06/04 08:44:12;;;;;;;6.13;5.07;;;;;;;19.31;55.05;101560.28;5064568;28;20036;-78
2021/06/04 08:46:43;;;;;;;7.38;5.18;;;;;;;19.55;53.58;101569.06;5072208;28;20040;-79
2021/06/04 08:49:30;;;;;;;5.63;4.88;;;;;;;19.66;54.71;101570.38;5085765;28;20717;-78
2021/06/04 08:52:20;;;;;;;6.18;5.00;;;;;;;19.40;52.39;101558.06;5068261;28;20044;-78
2021/06/04 08:55:27;;;;;;;5.63;4.70;;;;;;;19.60;53.09;101559.94;5063813;28;20041;-77
2021/06/04 08:57:53;;;;;;;6.90;5.47;;;;;;;19.91;54.95;101555.88;5054125;28;20041;-77
2021/06/04 09:00:27;;;;;;;6.60;4.97;;;;;;;19.79;52.99;101565.34;5067798;28;20041;-78
2021/06/04 09:02:57;;;;;;;6.03;4.90;;;;;;;20.15;53.39;101559.25;5090490;28;20044;-79
2021/06/04 09:05:38;;;;;;;5.95;4.93;;;;;;;20.43;54.04;101551.72;5082892;28;20048;-77
2021/06/04 09:08:09;;;;;;;8.15;4.95;;;;;;;20.45;53.35;101548.94;5087919;28;20064;-79
2021/06/04 09:10:48;;;;;;;5.90;5.22;;;;;;;20.64;51.64;101549.78;5070837;28;20040;-78
2021/06/04 09:13:31;;;;;;;6.35;5.07;;;;;;;20.25;51.76;101544.47;5082503;28;20055;-79
2021/06/04 09:16:08;;;;;;;6.78;4.97;;;;;;;20.49;52.41;101545.16;5086469;28;20043;-78
2021/06/04 09:18:47;;;;;;;7.30;5.10;;;;;;;20.50;50.30;101546.91;5052149;28;20574;-78
2021/06/04 09:21:21;;;;;;;5.93;5.32;;;;;;;20.84;51.41;101538.06;5078629;28;20054;-78
2021/06/04 09:23:50;;;;;;;6.88;5.25;;;;;;;20.90;52.81;101544.97;5087550;28;20489;-78
2021/06/04 09:26:21;;;;;;;6.40;5.28;;;;;;;21.09;50.90;101540.41;5072980;28;20040;-78
2021/06/04 09:29:27;;;;;;;7.32;5.18;;;;;;;21.40;50.40;101544.25;5068960;28;20044;-77
2021/06/04 09:31:57;;;;;;;6.78;5.63;;;;;;;21.63;50.32;101546.63;5065525;28;20036;-80
2021/06/04 09:34:31;;;;;;;5.13;4.63;;;;;;;21.53;48.79;101540.00;5083999;28;20075;-77
2021/06/04 09:37:06;;;;;;;7.60;5.13;;;;;;;21.75;48.45;101540.59;5063772;28;20036;-79
2021/06/04 09:39:37;;;;;;;5.45;4.78;;;;;;;22.12;47.72;101544.03;5068003;28;20081;-78
2021/06/04 09:42:07;;;;;;;8.20;4.70;;;;;;;22.51;45.53;101565.19;5067082;28;20050;-78
2021/06/04 09:45:00;;;;;;;5.20;4.50;;;;;;;22.78;44.18;101551.97;5083532;28;20132;-79
2021/06/04 09:48:19;;;;;;;7.15;5.18;;;;;;;23.29;46.46;101548.09;5086021;28;20036;-79
2021/06/04 09:50:50;;;;;;;5.97;5.05;;;;;;;23.70;42.48;101549.28;5068956;28;20055;-79
2021/06/04 09:53:21;;;;;;;6.07;4.28;;;;;;;23.84;41.17;101546.59;5085447;28;20044;-79
2021/06/04 09:55:49;;;;;;;5.13;4.43;;;;;;;24.04;41.77;101548.91;5083176;28;20071;-78
2021/06/04 09:58:31;;;;;;;5.72;4.50;;;;;;;24.42;42.50;101534.84;5080888;28;20413;-79
2021/06/04 10:01:04;;;;;;;5.97;4.40;;;;;;;24.57;42.27;101539.28;5035193;28;20040;-78
2021/06/04 10:03:42;;;;;;;5.25;4.38;;;;;;;24.52;40.78;101538.69;5066743;28;20047;-78
2021/06/04 10:06:46;;;;;;;4.13;3.65;;;;;;;24.65;41.46;101544.19;5079946;28;20412;-79
2021/06/04 10:09:48;;;;;;;11.70;4.95;;;;;;;24.49;40.55;101547.00;5066678;28;20093;-79
2021/06/04 10:12:48;;;;;;;4.25;3.85;;;;;;;24.57;40.58;101543.81;5075542;28;20505;-77
2021/06/04 10:15:51;;;;;;;5.50;4.35;;;;;;;24.35;41.24;101547.00;5063182;28;20040;-80
2021/06/04 10:18:37;;;;;;;6.07;4.40;;;;;;;24.13;40.54;101542.97;5080242;28;20044;-79
2021/06/04 10:21:21;;;;;;;4.80;4.20;;;;;;;24.12;41.63;101534.94;5047336;28;20047;-80
2021/06/04 10:23:53;;;;;;;4.65;3.97;;;;;;;24.15;41.38;101530.22;5077798;28;20543;-80
2021/06/04 10:26:27;;;;;;;4.45;3.80;;;;;;;24.12;41.40;101527.69;5055941;28;20514;-80
2021/06/04 10:29:06;;;;;;;4.32;3.83;;;;;;;24.29;41.58;101539.25;5080078;28;20047;-80
2021/06/04 10:32:10;;;;;;;5.20;4.53;;;;;;;24.19;42.02;101535.41;5075626;28;20051;-80
2021/06/04 10:34:48;;;;;;;;;;;;;;;23.91;42.69;101534.47;5081755;28;20040;-80
2021/06/04 10:37:26;;;;;;;4.57;3.75;;;;;;;23.96;40.07;101532.34;5077308;28;20387;-80
2021/06/04 10:40:10;;;;;;;6.05;4.25;;;;;;;24.01;40.55;101537.47;5077521;28;20151;-79
2021/06/04 10:42:55;;;;;;;5.47;4.40;;;;;;;24.11;41.59;101533.22;5071146;28;20052;-79
2021/06/04 10:45:34;;;;;;;4.82;4.35;;;;;;;24.40;43.02;101534.09;5053465;28;20138;-80
2021/06/04 10:48:27;;;;;;;3.95;3.58;;;;;;;24.69;40.54;101533.03;5101020;28;20047;-79
2021/06/04 10:51:01;;;;;;;3.95;3.60;;;;;;;24.79;41.10;101532.44;5067839;28;20052;-79
2021/06/04 10:53:58;;;;;;;4.35;3.92;;;;;;;25.20;40.50;101522.44;5073467;28;20483;-80
2021/06/04 10:56:38;;;;;;;4.22;3.83;;;;;;;25.29;39.34;101522.78;5077541;28;20723;-80
2021/06/04 10:59:23;;;;;;;4.60;4.10;;;;;;;25.25;37.77;101523.00;5067103;28;20581;-80
2021/06/04 11:02:14;;;;;;;4.22;3.83;;;;;;;25.64;36.04;101520.34;5073351;28;20040;-81
2021/06/04 11:04:58;;;;;;;5.30;4.10;;;;;;;25.31;37.08;101532.56;5048423;28;20394;-80
2021/06/04 11:07:32;;;;;;;4.85;4.32;;;;;;;25.76;37.85;101516.81;5084805;28;20082;-80
2021/06/04 11:10:16;;;;;;;22.50;5.25;;;;;;;25.66;36.98;101521.13;5059481;28;20039;-81
2021/06/04 11:12:56;;;;;;;5.25;4.32;;;;;;;25.91;38.19;101509.47;5077129;28;20059;-80
2021/06/04 11:16:00;;;;;;;5.53;4.70;;;;;;;25.85;37.27;101504.47;5041620;28;20045;-79
2021/06/04 11:18:36;;;;;;;5.15;4.30;;;;;;;25.93;37.19;101515.63;5069165;28;20036;-79
2021/06/04 11:21:40;;;;;;;7.45;4.57;;;;;;;26.40;36.50;101516.75;5051669;28;20048;-80
2021/06/04 11:24:29;;;;;;;4.38;3.92;;;;;;;26.41;36.55;101508.53;5043155;28;20062;-79
2021/06/04 11:26:59;;;;;;;7.55;4.82;;;;;;;26.05;35.89;101502.06;5075126;28;20040;-80
2021/06/04 11:29:41;;;;;;;4.75;4.35;;;;;;;26.19;37.10;101497.50;5077634;28;20037;-79
2021/06/04 11:32:16;;;;;;;5.15;4.45;;;;;;;26.31;36.40;101491.16;5068343;28;20113;-79
2021/06/04 11:34:54;;;;;;;6.95;4.38;;;;;;;26.63;35.78;101492.38;5082172;28;20081;-80
2021/06/04 11:37:35;;;;;;;26.05;6.35;;;;;;;26.64;36.63;101499.53;5063045;28;20048;-79
2021/06/04 11:40:16;;;;;;;4.45;4.03;;;;;;;26.55;34.95;101496.66;5088530;28;20101;-78
2021/06/04 11:42:55;;;;;;;4.32;3.92;;;;;;;26.65;34.08;101500.41;5068701;28;20032;-78
2021/06/04 11:45:25;;;;;;;4.45;4.05;;;;;;;26.64;34.10;101501.38;5072047;28;20051;-79
2021/06/04 11:47:52;;;;;;;5.10;3.55;;;;;;;26.73;35.76;101506.13;5076139;28;20047;-79
2021/06/04 11:50:26;;;;;;;5.32;4.20;;;;;;;26.58;34.70;101501.88;5075575;28;20036;-78
2021/06/04 11:53:25;;;;;;;4.68;4.28;;;;;;;26.88;36.02;101502.25;5072952;28;20584;-78